Time;durP1;ratioP1;P1;durP2;ratioP2;P2;SDS_P1;SDS_P2;PMS_P1;PMS_P2;Temp;Humidity;BMP_temperature;BMP_pressure;BME280_temperature;BME280_humidity;BME280_pressure;Samples;Min_cycle;Max_cycle;Signal;HPM_P1;HPM_P2
2023/08/03 00:02:05;;;;;;;7.72;2.45;;;;;;;;;;5070359;28;20027;-67
2023/08/03 00:04:30;;;;;;;12.07;2.53;;;;;;;;;;5071763;28;20051;-67
2023/08/03 00:06:55;;;;;;;9.52;2.55;;;;;;;;;;5070541;28;20060;-67
2023/08/03 00:09:21;;;;;;;7.78;2.67;;;;;;;;;;5068357;28;20025;-67
2023/08/03 00:11:46;;;;;;;5.82;2.10;;;;;;;;;;5071679;28;20105;-67
2023/08/03 00:14:11;;;;;;;9.07;2.55;;;;;;;;;;5069739;28;20024;-67
2023/08/03 00:16:36;;;;;;;8.68;2.60;;;;;;;;;;5071104;28;20058;-67
2023/08/03 00:19:02;;;;;;;8.48;2.60;;;;;;;;;;5068953;28;20020;-67
2023/08/03 00:21:27;;;;;;;7.53;2.60;;;;;;;;;;5070908;28;20480;-67
2023/08/03 00:23:52;;;;;;;11.00;2.65;;;;;;;;;;5070409;28;20028;-67
2023/08/03 00:26:17;;;;;;;9.75;2.58;;;;;;;;;;5070365;28;20035;-67
2023/08/03 00:28:42;;;;;;;12.23;2.60;;;;;;;;;;5074128;28;20055;-67
2023/08/03 00:31:08;;;;;;;9.27;2.80;;;;;;;;;;5073071;28;20113;-67
2023/08/03 00:33:33;;;;;;;8.85;2.95;;;;;;;;;;5073470;28;20086;-67
2023/08/03 00:35:58;;;;;;;9.65;2.80;;;;;;;;;;5074661;28;20024;-62
2023/08/03 00:38:23;;;;;;;15.93;2.70;;;;;;;;;;5073477;28;20397;-63
2023/08/03 00:40:52;;;;;;;8.95;2.50;;;;;;;;;;5074715;28;20040;-63
2023/08/03 00:43:17;;;;;;;9.52;2.40;;;;;;;;;;5072347;28;20043;-63
2023/08/03 00:45:42;;;;;;;6.15;2.00;;;;;;;;;;5074829;28;20115;-62
2023/08/03 00:48:08;;;;;;;8.88;2.22;;;;;;;;;;5072455;28;20040;-64
2023/08/03 00:50:33;;;;;;;8.35;2.20;;;;;;;;;;5072277;28;20028;-62
2023/08/03 00:52:58;;;;;;;7.35;2.20;;;;;;;;;;5076083;28;20024;-63
2023/08/03 00:55:24;;;;;;;9.75;1.88;;;;;;;;;;5073830;28;20031;-63
2023/08/03 00:57:49;;;;;;;9.77;2.05;;;;;;;;;;5074367;28;20025;-63
2023/08/03 01:03:17;;;;;;;10.52;2.10;;;;;;;;;;5067793;28;20104;-62
2023/08/03 01:05:42;;;;;;;10.15;1.90;;;;;;;;;;5077627;28;20052;-62
2023/08/03 01:08:07;;;;;;;9.27;2.33;;;;;;;;;;5074380;28;20025;-63
2023/08/03 01:10:33;;;;;;;6.95;1.92;;;;;;;;;;5072168;28;20033;-62
2023/08/03 01:12:58;;;;;;;7.80;1.80;;;;;;;;;;5072876;28;20016;-62
2023/08/03 01:15:23;;;;;;;5.00;1.60;;;;;;;;;;5075982;28;20017;-62
2023/08/03 01:17:49;;;;;;;8.32;1.58;;;;;;;;;;5069183;28;20388;-62
2023/08/03 01:20:16;;;;;;;10.68;2.50;;;;;;;;;;5074073;28;20024;-64
2023/08/03 01:22:41;;;;;;;8.25;1.98;;;;;;;;;;5072601;28;20094;-67
2023/08/03 01:25:07;;;;;;;9.38;2.03;;;;;;;;;;5074570;28;20119;-66
2023/08/03 01:27:32;;;;;;;10.05;1.95;;;;;;;;;;5074571;28;20020;-67
2023/08/03 01:29:57;;;;;;;9.85;1.77;;;;;;;;;;5073094;28;20024;-67
2023/08/03 01:32:23;;;;;;;7.88;1.83;;;;;;;;;;5073991;28;20028;-67
2023/08/03 01:34:48;;;;;;;7.60;2.10;;;;;;;;;;5074153;28;20392;-67
2023/08/03 01:37:13;;;;;;;7.15;1.75;;;;;;;;;;5072964;28;20396;-67
2023/08/03 01:39:43;;;;;;;9.43;2.20;;;;;;;;;;5073618;28;20027;-67
2023/08/03 01:42:08;;;;;;;5.68;2.08;;;;;;;;;;5073911;28;20024;-67
2023/08/03 01:44:33;;;;;;;8.27;2.08;;;;;;;;;;5073251;28;20078;-67
2023/08/03 01:46:59;;;;;;;9.52;2.78;;;;;;;;;;5070219;28;20404;-67
2023/08/03 01:49:28;;;;;;;13.23;2.22;;;;;;;;;;5074466;28;20039;-67
2023/08/03 01:51:53;;;;;;;7.53;2.15;;;;;;;;;;5064825;28;20102;-67
2023/08/03 01:54:19;;;;;;;8.35;2.15;;;;;;;;;;5067215;28;20029;-68
2023/08/03 01:56:44;;;;;;;9.63;2.65;;;;;;;;;;5072198;28;20058;-68
2023/08/03 01:59:10;;;;;;;9.35;2.47;;;;;;;;;;5074261;28;20071;-68
2023/08/03 02:01:35;;;;;;;7.70;2.40;;;;;;;;;;5069557;28;20028;-68
2023/08/03 02:04:01;;;;;;;9.38;2.88;;;;;;;;;;5074217;28;20603;-64
2023/08/03 02:06:26;;;;;;;8.57;2.53;;;;;;;;;;5075059;28;20491;-64
2023/08/03 02:08:51;;;;;;;11.77;2.70;;;;;;;;;;5073246;28;20028;-64
2023/08/03 02:11:17;;;;;;;12.95;2.72;;;;;;;;;;5072580;28;20035;-64
2023/08/03 02:13:42;;;;;;;8.05;2.60;;;;;;;;;;5073147;28;20028;-64
2023/08/03 02:16:10;;;;;;;8.60;2.72;;;;;;;;;;5072177;28;20035;-64
2023/08/03 02:18:35;;;;;;;10.15;2.40;;;;;;;;;;5072091;28;20024;-64
2023/08/03 02:21:00;;;;;;;7.82;2.60;;;;;;;;;;5071756;28;20029;-64
2023/08/03 02:23:25;;;;;;;8.98;2.58;;;;;;;;;;5073873;28;20329;-63
2023/08/03 02:25:51;;;;;;;9.48;2.83;;;;;;;;;;5067307;28;20020;-64
2023/08/03 02:28:16;;;;;;;8.93;2.67;;;;;;;;;;5072564;28;20029;-64
2023/08/03 02:30:41;;;;;;;5.10;2.70;;;;;;;;;;5073289;28;20040;-63
2023/08/03 02:33:07;;;;;;;7.45;2.60;;;;;;;;;;5073582;28;20037;-66
2023/08/03 02:35:34;;;;;;;5.75;2.30;;;;;;;;;;5073230;28;20029;-65
2023/08/03 02:37:59;;;;;;;10.60;3.00;;;;;;;;;;5071266;28;20032;-63
2023/08/03 02:40:24;;;;;;;5.32;2.30;;;;;;;;;;5073349;28;20016;-63
2023/08/03 02:42:50;;;;;;;6.82;2.53;;;;;;;;;;5067308;28;20381;-63
2023/08/03 02:45:15;;;;;;;7.43;2.40;;;;;;;;;;5063479;28;20070;-63
2023/08/03 02:47:40;;;;;;;6.40;2.72;;;;;;;;;;5069852;28;20028;-62
2023/08/03 02:50:05;;;;;;;5.57;2.90;;;;;;;;;;5070498;28;20021;-64
2023/08/03 02:52:31;;;;;;;7.90;2.92;;;;;;;;;;5071845;28;20025;-62
2023/08/03 02:54:56;;;;;;;8.18;2.60;;;;;;;;;;5072464;28;20030;-63
2023/08/03 02:57:21;;;;;;;5.60;2.90;;;;;;;;;;5069801;28;20051;-63
2023/08/03 02:59:47;;;;;;;5.45;2.63;;;;;;;;;;5072267;28;20025;-63
2023/08/03 03:02:12;;;;;;;8.52;2.90;;;;;;;;;;5073123;28;20020;-63
2023/08/03 03:04:37;;;;;;;7.45;2.70;;;;;;;;;;5071280;28;20086;-63
2023/08/03 03:07:02;;;;;;;7.68;2.95;;;;;;;;;;5071719;28;20024;-64
2023/08/03 03:09:28;;;;;;;4.85;2.90;;;;;;;;;;5071571;28;20448;-63
2023/08/03 03:11:55;;;;;;;6.53;2.80;;;;;;;;;;5069914;28;20066;-63
2023/08/03 03:14:21;;;;;;;10.05;3.20;;;;;;;;;;5072722;28;20017;-64
2023/08/03 03:16:46;;;;;;;5.75;2.85;;;;;;;;;;5071046;28;20104;-64
2023/08/03 03:19:12;;;;;;;6.93;3.25;;;;;;;;;;5071386;28;20027;-63
2023/08/03 03:21:37;;;;;;;6.82;3.08;;;;;;;;;;5073631;28;20099;-64
2023/08/03 03:24:02;;;;;;;6.10;3.17;;;;;;;;;;5071827;28;20012;-63
2023/08/03 03:26:27;;;;;;;6.53;2.97;;;;;;;;;;5071895;28;20032;-66
2023/08/03 03:28:53;;;;;;;6.32;3.47;;;;;;;;;;5072511;28;20023;-64
2023/08/03 03:31:18;;;;;;;5.57;3.28;;;;;;;;;;5071176;28;20099;-64
2023/08/03 03:33:43;;;;;;;7.57;3.10;;;;;;;;;;5071296;28;20059;-63
2023/08/03 03:36:08;;;;;;;4.47;2.85;;;;;;;;;;5073194;28;20090;-64
2023/08/03 03:38:34;;;;;;;7.10;3.20;;;;;;;;;;5072281;28;20032;-66
2023/08/03 03:40:59;;;;;;;5.32;2.40;;;;;;;;;;5054109;28;20078;-67
2023/08/03 03:43:24;;;;;;;6.05;3.20;;;;;;;;;;5073217;28;20016;-64
2023/08/03 03:45:49;;;;;;;4.90;2.47;;;;;;;;;;5065693;28;20443;-66
2023/08/03 03:48:14;;;;;;;6.35;3.30;;;;;;;;;;5072774;28;20054;-66
2023/08/03 03:50:40;;;;;;;7.97;3.88;;;;;;;;;;5072342;28;20408;-63
2023/08/03 03:53:05;;;;;;;7.22;4.07;;;;;;;;;;5072126;28;20473;-65
2023/08/03 03:55:30;;;;;;;9.55;4.15;;;;;;;;;;5068025;28;20016;-64
2023/08/03 03:57:57;;;;;;;7.00;3.88;;;;;;;;;;5071063;28;20036;-63
2023/08/03 04:00:23;;;;;;;9.10;3.70;;;;;;;;;;5071547;28;20016;-64
2023/08/03 04:02:49;;;;;;;7.88;4.40;;;;;;;;;;5075649;28;20025;-65
2023/08/03 04:05:14;;;;;;;7.60;3.85;;;;;;;;;;5076280;28;20488;-65
2023/08/03 04:07:39;;;;;;;8.77;3.90;;;;;;;;;;5075252;28;20032;-65
2023/08/03 04:10:05;;;;;;;7.55;4.13;;;;;;;;;;5075695;28;20028;-65
2023/08/03 04:12:30;;;;;;;7.88;3.95;;;;;;;;;;5075865;28;20039;-67
2023/08/03 04:14:55;;;;;;;8.80;3.80;;;;;;;;;;5077671;28;20024;-65
2023/08/03 04:17:20;;;;;;;8.30;4.22;;;;;;;;;;5074516;28;20028;-65
2023/08/03 04:19:46;;;;;;;8.13;4.38;;;;;;;;;;5074376;28;20017;-65
2023/08/03 04:22:11;;;;;;;10.00;4.80;;;;;;;;;;5076235;28;20035;-63
2023/08/03 04:24:38;;;;;;;6.90;4.10;;;;;;;;;;5067131;28;20052;-64
2023/08/03 04:27:04;;;;;;;7.50;4.43;;;;;;;;;;5067153;28;20024;-63
2023/08/03 04:29:29;;;;;;;6.25;3.22;;;;;;;;;;5073352;28;20012;-65
2023/08/03 04:31:54;;;;;;;9.68;4.07;;;;;;;;;;5072747;28;20108;-64
2023/08/03 04:34:19;;;;;;;7.65;3.55;;;;;;;;;;5073914;28;20017;-63
2023/08/03 04:36:47;;;;;;;5.85;3.70;;;;;;;;;;5071510;28;20025;-66
2023/08/03 04:39:12;;;;;;;6.22;3.25;;;;;;;;;;5073855;28;20021;-68
2023/08/03 04:41:37;;;;;;;6.97;3.83;;;;;;;;;;5074134;28;20426;-63
2023/08/03 04:44:03;;;;;;;7.93;4.25;;;;;;;;;;5075417;28;20020;-66
2023/08/03 04:46:28;;;;;;;6.93;3.88;;;;;;;;;;5073610;28;20032;-63
2023/08/03 04:48:53;;;;;;;7.97;4.32;;;;;;;;;;5068898;28;20058;-64
2023/08/03 04:51:19;;;;;;;7.45;4.20;;;;;;;;;;5072889;28;20016;-64
2023/08/03 04:53:44;;;;;;;7.60;3.75;;;;;;;;;;5074946;28;20024;-63
2023/08/03 04:56:10;;;;;;;5.43;3.45;;;;;;;;;;5076330;28;20029;-65
2023/08/03 04:58:35;;;;;;;8.00;4.50;;;;;;;;;;5077839;28;20016;-62
2023/08/03 05:01:00;;;;;;;8.25;4.25;;;;;;;;;;5088378;28;20388;-60
2023/08/03 05:03:25;;;;;;;6.88;3.95;;;;;;;;;;5074733;28;20017;-61
2023/08/03 05:05:50;;;;;;;7.30;4.00;;;;;;;;;;5071024;28;20468;-60
2023/08/03 05:08:16;;;;;;;6.00;3.55;;;;;;;;;;5072040;28;20404;-62
2023/08/03 05:10:41;;;;;;;7.00;3.55;;;;;;;;;;5070844;28;20078;-61
2023/08/03 05:13:06;;;;;;;8.57;3.90;;;;;;;;;;5072081;28;20020;-62
2023/08/03 05:15:32;;;;;;;8.27;3.90;;;;;;;;;;5070607;28;20028;-63
2023/08/03 05:18:00;;;;;;;8.60;3.28;;;;;;;;;;5071234;28;20032;-65
2023/08/03 05:20:26;;;;;;;5.82;2.80;;;;;;;;;;5080529;28;20524;-65
2023/08/03 05:22:51;;;;;;;5.95;2.47;;;;;;;;;;5066247;28;20035;-64
2023/08/03 05:25:16;;;;;;;7.90;3.05;;;;;;;;;;5055518;28;20382;-65
2023/08/03 05:27:41;;;;;;;4.47;2.83;;;;;;;;;;5070329;28;20033;-65
2023/08/03 05:30:07;;;;;;;6.28;3.90;;;;;;;;;;5073738;28;20032;-65
2023/08/03 05:32:32;;;;;;;10.00;4.35;;;;;;;;;;5073602;28;20037;-64
2023/08/03 05:34:57;;;;;;;7.97;3.55;;;;;;;;;;5075500;28;20453;-64
2023/08/03 05:37:23;;;;;;;9.52;4.85;;;;;;;;;;5075544;28;20372;-64
2023/08/03 05:39:48;;;;;;;7.07;4.10;;;;;;;;;;5075147;28;20395;-65
2023/08/03 05:42:14;;;;;;;10.18;4.60;;;;;;;;;;5075303;28;20026;-64
2023/08/03 05:44:39;;;;;;;10.55;4.90;;;;;;;;;;5075071;28;20024;-66
2023/08/03 05:47:05;;;;;;;7.15;4.38;;;;;;;;;;5065463;28;20116;-66
2023/08/03 05:49:30;;;;;;;8.50;4.88;;;;;;;;;;5073008;28;20024;-66
2023/08/03 05:51:56;;;;;;;8.73;4.80;;;;;;;;;;5071657;28;20087;-64
2023/08/03 05:54:21;;;;;;;8.10;3.90;;;;;;;;;;5074964;28;20021;-66
2023/08/03 05:56:46;;;;;;;11.15;4.97;;;;;;;;;;5075132;28;20438;-66
2023/08/03 05:59:16;;;;;;;9.93;5.35;;;;;;;;;;5075204;28;20028;-65
2023/08/03 06:01:42;;;;;;;12.20;5.70;;;;;;;;;;5073724;28;20518;-69
2023/08/03 06:04:09;;;;;;;9.38;5.55;;;;;;;;;;5061935;28;20061;-65
2023/08/03 06:06:34;;;;;;;8.85;5.82;;;;;;;;;;5069060;28;20051;-66
2023/08/03 06:09:00;;;;;;;9.18;6.03;;;;;;;;;;5074979;28;20474;-64
2023/08/03 06:11:25;;;;;;;12.75;6.95;;;;;;;;;;5074865;28;20114;-64
2023/08/03 06:13:51;;;;;;;11.45;6.63;;;;;;;;;;5086897;28;20024;-64
2023/08/03 06:16:16;;;;;;;9.70;6.47;;;;;;;;;;5049018;28;20419;-66
2023/08/03 06:18:48;;;;;;;10.45;5.22;;;;;;;;;;5054473;28;20017;-64
2023/08/03 06:21:14;;;;;;;7.75;4.60;;;;;;;;;;5066466;28;20031;-64
2023/08/03 06:23:40;;;;;;;10.43;4.10;;;;;;;;;;5073291;28;20536;-64
2023/08/03 06:26:11;;;;;;;5.72;3.03;;;;;;;;;;5074059;28;20059;-64
2023/08/03 06:28:36;;;;;;;4.82;2.50;;;;;;;;;;5074344;28;20036;-64
2023/08/03 06:31:05;;;;;;;5.63;2.10;;;;;;;;;;5074222;28;20020;-64
2023/08/03 06:33:32;;;;;;;3.55;1.88;;;;;;;;;;5065816;28;20516;-64
2023/08/03 06:35:58;;;;;;;2.58;1.30;;;;;;;;;;5063334;28;20060;-64
2023/08/03 06:38:23;;;;;;;3.08;1.30;;;;;;;;;;5054153;28;20068;-63
2023/08/03 06:40:49;;;;;;;3.53;1.30;;;;;;;;;;5068847;28;20020;-62
2023/08/03 06:43:14;;;;;;;3.58;1.08;;;;;;;;;;5071677;28;20017;-61
2023/08/03 06:45:43;;;;;;;2.72;1.20;;;;;;;;;;5073766;28;20027;-66
2023/08/03 06:48:09;;;;;;;2.10;1.10;;;;;;;;;;5073707;28;20418;-66
2023/08/03 06:50:34;;;;;;;2.65;1.20;;;;;;;;;;5074428;28;20017;-67
2023/08/03 06:53:02;;;;;;;3.03;1.30;;;;;;;;;;5061214;28;20025;-67
2023/08/03 06:55:27;;;;;;;3.53;1.27;;;;;;;;;;5059862;28;20021;-67
2023/08/03 06:57:52;;;;;;;2.30;1.10;;;;;;;;;;5072938;28;20017;-67
2023/08/03 07:00:18;;;;;;;4.20;1.20;;;;;;;;;;5073492;28;20032;-66
2023/08/03 07:02:44;;;;;;;4.35;1.20;;;;;;;;;;5073870;28;20029;-66
2023/08/03 07:05:10;;;;;;;3.15;1.10;;;;;;;;;;5089492;28;20082;-66
2023/08/03 07:07:35;;;;;;;2.45;0.88;;;;;;;;;;5093789;28;20032;-66
2023/08/03 07:10:00;;;;;;;3.28;0.90;;;;;;;;;;5093985;28;20047;-65
2023/08/03 07:12:26;;;;;;;2.00;0.90;;;;;;;;;;5090518;28;20035;-65
2023/08/03 07:14:51;;;;;;;1.90;0.77;;;;;;;;;;5072717;28;20426;-66
2023/08/03 07:17:16;;;;;;;1.73;0.70;;;;;;;;;;5073450;28;20435;-66
2023/08/03 07:19:42;;;;;;;3.95;0.90;;;;;;;;;;5074480;28;20047;-66
2023/08/03 07:22:08;;;;;;;4.88;0.90;;;;;;;;;;5084595;28;20405;-66
2023/08/03 07:24:34;;;;;;;3.00;0.93;;;;;;;;;;5092651;28;20380;-66
2023/08/03 07:27:02;;;;;;;3.50;1.10;;;;;;;;;;5092462;28;20024;-66
2023/08/03 07:29:28;;;;;;;3.72;1.15;;;;;;;;;;5090845;28;20027;-66
2023/08/03 07:31:53;;;;;;;1.92;0.90;;;;;;;;;;5082667;28;20024;-66
2023/08/03 07:34:19;;;;;;;1.85;0.80;;;;;;;;;;5091679;28;20099;-66
2023/08/03 07:36:45;;;;;;;2.45;0.93;;;;;;;;;;5085908;28;20152;-66
2023/08/03 07:39:11;;;;;;;3.40;0.90;;;;;;;;;;5092087;28;20027;-66
2023/08/03 07:41:36;;;;;;;3.30;1.02;;;;;;;;;;5075413;28;20028;-66
2023/08/03 07:44:02;;;;;;;4.75;1.00;;;;;;;;;;5086348;28;20104;-66
2023/08/03 07:46:28;;;;;;;3.63;1.00;;;;;;;;;;5085928;28;20016;-67
2023/08/03 07:48:53;;;;;;;2.83;1.08;;;;;;;;;;5064082;28;20027;-66
2023/08/03 07:51:18;;;;;;;4.65;0.90;;;;;;;;;;5072959;28;20028;-66
2023/08/03 07:53:44;;;;;;;3.35;1.10;;;;;;;;;;5067524;28;20078;-66
2023/08/03 07:56:15;;;;;;;2.70;1.10;;;;;;;;;;5073022;28;20056;-61
2023/08/03 07:58:40;;;;;;;3.63;0.95;;;;;;;;;;5073150;28;20456;-62
2023/08/03 08:01:05;;;;;;;3.90;0.90;;;;;;;;;;5073251;28;20107;-62
2023/08/03 08:03:30;;;;;;;3.42;0.90;;;;;;;;;;5072925;28;20021;-61
2023/08/03 08:06:12;;;;;;;2.67;0.90;;;;;;;;;;5072239;28;20473;-62
2023/08/03 08:08:38;;;;;;;2.75;1.00;;;;;;;;;;5073057;28;20024;-62
2023/08/03 08:11:04;;;;;;;3.17;1.00;;;;;;;;;;5073062;28;20377;-64
2023/08/03 08:13:29;;;;;;;2.95;1.15;;;;;;;;;;5072957;28;20082;-63
2023/08/03 08:16:01;;;;;;;2.53;1.02;;;;;;;;;;5069879;28;20021;-64
2023/08/03 08:18:27;;;;;;;3.90;1.30;;;;;;;;;;5074349;28;20028;-65
2023/08/03 08:20:59;;;;;;;3.60;1.15;;;;;;;;;;5092781;28;20488;-62
2023/08/03 08:23:24;;;;;;;4.18;1.30;;;;;;;;;;5072766;28;20110;-61
2023/08/03 08:25:49;;;;;;;2.80;0.95;;;;;;;;;;5072989;28;20048;-61
2023/08/03 08:28:15;;;;;;;4.15;1.40;;;;;;;;;;5072581;28;20461;-61
2023/08/03 08:30:40;;;;;;;4.03;1.20;;;;;;;;;;5072509;28;20021;-61
2023/08/03 08:33:05;;;;;;;4.72;1.10;;;;;;;;;;5072455;28;20070;-61
2023/08/03 08:35:31;;;;;;;5.43;1.23;;;;;;;;;;5072599;28;20033;-61
2023/08/03 08:37:59;;;;;;;3.35;1.10;;;;;;;;;;5072175;28;20037;-61
2023/08/03 08:40:24;;;;;;;3.47;1.17;;;;;;;;;;5058808;28;20024;-62
2023/08/03 08:42:52;;;;;;;5.55;1.20;;;;;;;;;;5071620;28;20538;-62
2023/08/03 08:45:18;;;;;;;4.93;1.13;;;;;;;;;;5072016;28;20054;-61
2023/08/03 08:47:43;;;;;;;1.80;1.02;;;;;;;;;;5072756;28;20486;-62
2023/08/03 08:50:08;;;;;;;4.43;1.10;;;;;;;;;;5085294;28;20016;-61
2023/08/03 08:52:35;;;;;;;4.43;1.10;;;;;;;;;;5075292;28;20058;-61
2023/08/03 08:55:14;;;;;;;6.47;1.10;;;;;;;;;;5076333;28;20036;-62
2023/08/03 08:57:39;;;;;;;4.95;1.10;;;;;;;;;;5062779;28;20048;-62
2023/08/03 09:00:05;;;;;;;2.97;0.93;;;;;;;;;;5063338;28;20678;-62
2023/08/03 09:02:31;;;;;;;3.97;1.20;;;;;;;;;;5076148;28;20036;-62
2023/08/03 09:04:56;;;;;;;2.38;1.10;;;;;;;;;;5075546;28;20074;-63
2023/08/03 09:07:22;;;;;;;3.63;1.17;;;;;;;;;;5076243;28;20032;-67
2023/08/03 09:09:47;;;;;;;6.03;1.20;;;;;;;;;;5076065;28;20496;-66
2023/08/03 09:12:27;;;;;;;3.90;1.02;;;;;;;;;;5075264;28;20029;-67
2023/08/03 09:14:52;;;;;;;5.20;1.40;;;;;;;;;;5076040;28;20468;-67
2023/08/03 09:17:18;;;;;;;5.70;1.17;;;;;;;;;;5075521;28;20023;-66
2023/08/03 09:19:45;;;;;;;3.75;1.10;;;;;;;;;;5095630;28;20016;-66
2023/08/03 09:22:10;;;;;;;4.68;1.27;;;;;;;;;;5095873;28;20028;-67
2023/08/03 09:24:36;;;;;;;4.10;1.20;;;;;;;;;;5095896;28;20084;-66
2023/08/03 09:27:01;;;;;;;4.93;1.30;;;;;;;;;;5095571;28;20020;-67
2023/08/03 09:29:27;;;;;;;4.20;1.00;;;;;;;;;;5089667;28;20491;-67
2023/08/03 09:32:03;;;;;;;3.58;1.10;;;;;;;;;;5075255;28;20025;-66
2023/08/03 09:34:56;;;;;;;4.72;1.10;;;;;;;;;;5075590;28;20089;-67
2023/08/03 09:37:31;;;;;;;4.63;1.10;;;;;;;;;;5072699;28;20033;-67
2023/08/03 09:39:58;;;;;;;4.75;1.20;;;;;;;;;;5062315;28;20469;-67
2023/08/03 09:42:23;;;;;;;4.00;1.20;;;;;;;;;;5056473;28;20024;-66
2023/08/03 09:44:49;;;;;;;4.00;1.10;;;;;;;;;;5075046;28;20028;-67
2023/08/03 09:47:14;;;;;;;2.22;0.98;;;;;;;;;;5071150;28;20047;-66
2023/08/03 09:49:39;;;;;;;5.03;1.00;;;;;;;;;;5075131;28;20423;-66
2023/08/03 09:52:06;;;;;;;4.22;1.20;;;;;;;;;;5072302;28;20036;-67
2023/08/03 09:54:52;;;;;;;2.78;1.10;;;;;;;;;;5061174;28;20067;-67
2023/08/03 09:57:20;;;;;;;3.17;1.00;;;;;;;;;;5075232;28;20396;-67
2023/08/03 09:59:46;;;;;;;4.25;1.00;;;;;;;;;;5074095;28;20013;-67
2023/08/03 10:02:12;;;;;;;3.45;1.15;;;;;;;;;;5074078;28;20029;-66
2023/08/03 10:04:43;;;;;;;4.93;1.10;;;;;;;;;;5073835;28;20052;-66
2023/08/03 10:07:09;;;;;;;2.53;0.88;;;;;;;;;;5074720;28;20020;-66
2023/08/03 10:09:39;;;;;;;2.78;1.00;;;;;;;;;;5075048;28;20504;-67
2023/08/03 10:12:08;;;;;;;6.85;1.40;;;;;;;;;;5074824;28;20490;-67
2023/08/03 10:14:35;;;;;;;5.53;1.30;;;;;;;;;;5085711;28;20364;-66
2023/08/03 10:17:01;;;;;;;3.83;1.10;;;;;;;;;;5094868;28;20020;-67
2023/08/03 10:19:27;;;;;;;2.63;1.00;;;;;;;;;;5083028;28;20071;-67
2023/08/03 10:21:53;;;;;;;4.25;1.15;;;;;;;;;;5073874;28;20023;-67
2023/08/03 10:24:18;;;;;;;3.85;1.30;;;;;;;;;;5074640;28;20481;-68
2023/08/03 10:26:48;;;;;;;3.30;1.40;;;;;;;;;;5074406;28;20060;-67
2023/08/03 10:29:14;;;;;;;5.80;1.47;;;;;;;;;;5074375;28;20041;-68
2023/08/03 10:31:53;;;;;;;3.85;1.40;;;;;;;;;;5074437;28;20139;-68
2023/08/03 10:34:28;;;;;;;5.20;1.60;;;;;;;;;;5074180;28;20016;-68
2023/08/03 10:36:55;;;;;;;3.90;1.58;;;;;;;;;;5073776;28;20151;-68
2023/08/03 10:39:41;;;;;;;5.32;1.70;;;;;;;;;;5074410;28;20036;-67
2023/08/03 10:42:24;;;;;;;4.55;1.50;;;;;;;;;;5075969;28;20044;-67
2023/08/03 10:44:50;;;;;;;4.05;1.23;;;;;;;;;;5054073;28;20045;-66
2023/08/03 10:47:26;;;;;;;4.00;1.10;;;;;;;;;;5053980;28;20438;-66
2023/08/03 10:49:52;;;;;;;4.20;1.10;;;;;;;;;;5053894;28;20027;-66
2023/08/03 10:52:19;;;;;;;2.42;1.00;;;;;;;;;;5054141;28;20456;-67
2023/08/03 10:54:45;;;;;;;2.97;1.08;;;;;;;;;;5061655;28;20013;-68
2023/08/03 10:57:11;;;;;;;2.88;1.58;;;;;;;;;;5073687;28;20031;-68
2023/08/03 10:59:41;;;;;;;2.90;1.25;;;;;;;;;;5063247;28;20032;-68
2023/08/03 11:02:09;;;;;;;3.75;1.58;;;;;;;;;;5060674;28;20499;-68
2023/08/03 11:04:34;;;;;;;3.55;1.50;;;;;;;;;;5071616;28;20044;-69
2023/08/03 11:07:00;;;;;;;4.78;1.30;;;;;;;;;;5071420;28;20472;-68
2023/08/03 11:09:25;;;;;;;3.15;1.58;;;;;;;;;;5071217;28;20028;-67
2023/08/03 11:11:54;;;;;;;4.68;1.30;;;;;;;;;;5072986;28;20040;-67
2023/08/03 11:14:20;;;;;;;6.97;1.63;;;;;;;;;;5073595;28;20054;-68
2023/08/03 11:16:46;;;;;;;3.08;1.40;;;;;;;;;;5072032;28;20051;-68
2023/08/03 11:19:13;;;;;;;5.45;1.50;;;;;;;;;;5073372;28;20016;-68
2023/08/03 11:21:40;;;;;;;4.18;1.50;;;;;;;;;;5077760;28;20542;-68
2023/08/03 11:24:05;;;;;;;3.00;1.20;;;;;;;;;;5073314;28;20025;-67
2023/08/03 11:26:31;;;;;;;3.15;1.10;;;;;;;;;;5073822;28;20030;-68
2023/08/03 11:28:56;;;;;;;2.30;0.95;;;;;;;;;;5072623;28;20032;-67
2023/08/03 11:31:22;;;;;;;3.35;1.10;;;;;;;;;;5073185;28;20035;-68
2023/08/03 11:33:48;;;;;;;2.90;1.00;;;;;;;;;;5073429;28;20031;-68
2023/08/03 11:36:14;;;;;;;4.10;1.00;;;;;;;;;;5073563;28;20013;-68
2023/08/03 11:38:40;;;;;;;3.47;1.10;;;;;;;;;;5073143;28;20013;-67
2023/08/03 11:41:05;;;;;;;3.33;1.20;;;;;;;;;;5073507;28;20032;-68
2023/08/03 11:43:30;;;;;;;3.47;1.30;;;;;;;;;;5072380;28;20086;-68
2023/08/03 11:45:55;;;;;;;6.10;1.30;;;;;;;;;;5062393;28;20481;-68
2023/08/03 11:48:22;;;;;;;3.90;1.00;;;;;;;;;;5070079;28;20021;-68
2023/08/03 11:50:47;;;;;;;5.63;1.27;;;;;;;;;;5073014;28;20030;-68
2023/08/03 11:53:22;;;;;;;4.57;1.00;;;;;;;;;;5073057;28;20103;-68
2023/08/03 11:55:47;;;;;;;3.65;1.02;;;;;;;;;;5058989;28;20021;-68
2023/08/03 11:58:13;;;;;;;4.55;1.20;;;;;;;;;;5064300;28;20027;-68
2023/08/03 12:00:38;;;;;;;3.92;1.40;;;;;;;;;;5073287;28;20055;-68
2023/08/03 12:03:04;;;;;;;4.40;1.65;;;;;;;;;;5072138;28;20028;-68
2023/08/03 12:05:41;;;;;;;4.47;1.35;;;;;;;;;;5072849;28;20044;-68
2023/08/03 12:08:08;;;;;;;3.10;1.23;;;;;;;;;;5089919;28;20543;-68
2023/08/03 12:10:33;;;;;;;3.97;1.10;;;;;;;;;;5088527;28;20016;-69
2023/08/03 12:12:58;;;;;;;6.38;1.48;;;;;;;;;;5069652;28;20021;-68
2023/08/03 12:15:24;;;;;;;4.57;1.50;;;;;;;;;;5072879;28;20163;-67
2023/08/03 12:17:50;;;;;;;4.47;1.58;;;;;;;;;;5073061;28;20012;-67
2023/08/03 12:20:15;;;;;;;5.75;1.20;;;;;;;;;;5072331;28;20368;-67
2023/08/03 12:22:40;;;;;;;3.55;1.30;;;;;;;;;;5074647;28;20016;-67
2023/08/03 12:25:05;;;;;;;3.70;1.30;;;;;;;;;;5076761;28;20032;-67
2023/08/03 12:27:31;;;;;;;5.32;1.75;;;;;;;;;;5076759;28;20089;-68
2023/08/03 12:29:56;;;;;;;5.40;1.70;;;;;;;;;;5076627;28;20020;-67
2023/08/03 12:32:21;;;;;;;5.22;1.80;;;;;;;;;;5076527;28;20031;-67
2023/08/03 12:34:46;;;;;;;9.55;2.60;;;;;;;;;;5076750;28;20032;-67
2023/08/03 12:37:12;;;;;;;5.75;2.20;;;;;;;;;;5082485;28;20376;-65
2023/08/03 12:39:37;;;;;;;5.07;1.70;;;;;;;;;;5096747;28;20024;-67
2023/08/03 12:42:02;;;;;;;8.43;2.15;;;;;;;;;;5096988;28;20055;-65
2023/08/03 12:44:27;;;;;;;5.53;2.28;;;;;;;;;;5096625;28;20020;-64
2023/08/03 12:46:52;;;;;;;7.43;2.40;;;;;;;;;;5087586;28;20028;-65
2023/08/03 12:49:18;;;;;;;6.22;2.25;;;;;;;;;;5075561;28;20025;-65
2023/08/03 12:51:44;;;;;;;5.72;1.58;;;;;;;;;;5074790;28;20101;-67
2023/08/03 12:54:09;;;;;;;5.97;2.33;;;;;;;;;;5074649;28;20050;-66
2023/08/03 12:56:38;;;;;;;7.78;2.58;;;;;;;;;;5075842;28;20020;-65
2023/08/03 12:59:03;;;;;;;5.28;2.10;;;;;;;;;;5072938;28;20017;-66
2023/08/03 13:01:29;;;;;;;4.60;1.48;;;;;;;;;;5076104;28;20017;-65
2023/08/03 13:03:54;;;;;;;5.78;1.42;;;;;;;;;;5074212;28;20080;-66
2023/08/03 13:06:20;;;;;;;4.72;1.40;;;;;;;;;;5073214;28;20021;-65
2023/08/03 13:08:45;;;;;;;5.25;1.40;;;;;;;;;;5056194;28;20024;-64
2023/08/03 13:11:11;;;;;;;5.88;1.80;;;;;;;;;;5072872;28;20385;-69
2023/08/03 13:13:36;;;;;;;6.65;1.83;;;;;;;;;;5077426;28;20028;-66
2023/08/03 13:16:05;;;;;;;8.85;2.30;;;;;;;;;;5074067;28;20040;-66
2023/08/03 13:18:30;;;;;;;8.45;2.28;;;;;;;;;;5075877;28;20353;-66
2023/08/03 13:20:56;;;;;;;6.47;2.30;;;;;;;;;;5075859;28;20027;-67
2023/08/03 13:23:21;;;;;;;7.00;2.50;;;;;;;;;;5075639;28;20013;-66
2023/08/03 13:25:47;;;;;;;5.25;2.03;;;;;;;;;;5074137;28;20012;-67
2023/08/03 13:28:12;;;;;;;7.95;2.60;;;;;;;;;;5072540;28;20020;-66
2023/08/03 13:30:37;;;;;;;8.27;2.97;;;;;;;;;;5075131;28;20032;-67
2023/08/03 13:33:02;;;;;;;5.40;1.98;;;;;;;;;;5074381;28;20434;-67
2023/08/03 13:35:28;;;;;;;7.35;2.85;;;;;;;;;;5074617;28;20456;-67
2023/08/03 13:37:53;;;;;;;7.07;2.78;;;;;;;;;;5074551;28;20062;-66
2023/08/03 13:40:18;;;;;;;5.43;2.45;;;;;;;;;;5075152;28;20012;-66
2023/08/03 13:42:43;;;;;;;6.13;2.40;;;;;;;;;;5074822;28;20028;-65
2023/08/03 13:45:09;;;;;;;7.70;2.20;;;;;;;;;;5074763;28;20046;-66
2023/08/03 13:47:34;;;;;;;5.40;1.70;;;;;;;;;;5060142;28;20028;-66
2023/08/03 13:50:00;;;;;;;5.35;1.60;;;;;;;;;;5075275;28;20021;-65
2023/08/03 13:52:25;;;;;;;6.50;1.80;;;;;;;;;;5071849;28;20020;-65
2023/08/03 13:54:50;;;;;;;7.25;2.10;;;;;;;;;;5070453;28;20013;-65
2023/08/03 13:57:18;;;;;;;6.15;2.20;;;;;;;;;;5058592;28;20096;-66
2023/08/03 13:59:43;;;;;;;8.85;2.58;;;;;;;;;;5075204;28;20012;-67
2023/08/03 14:02:09;;;;;;;5.93;2.10;;;;;;;;;;5084365;28;20047;-66
2023/08/03 14:04:34;;;;;;;6.47;1.90;;;;;;;;;;5094937;28;20072;-66
2023/08/03 14:07:00;;;;;;;5.13;2.10;;;;;;;;;;5095057;28;20020;-65
2023/08/03 14:09:25;;;;;;;5.97;1.67;;;;;;;;;;5095039;28;20399;-66
2023/08/03 14:11:50;;;;;;;4.30;1.60;;;;;;;;;;5081261;28;20029;-66
2023/08/03 14:14:16;;;;;;;7.07;1.80;;;;;;;;;;5075076;28;20044;-67
2023/08/03 14:16:47;;;;;;;7.65;2.50;;;;;;;;;;5074949;28;20023;-67
2023/08/03 14:19:13;;;;;;;7.45;2.67;;;;;;;;;;5073915;28;20020;-69
2023/08/03 14:21:38;;;;;;;7.20;1.90;;;;;;;;;;5074863;28;20023;-69
2023/08/03 14:24:03;;;;;;;8.88;2.10;;;;;;;;;;5074806;28;20488;-67
2023/08/03 14:26:29;;;;;;;10.43;2.63;;;;;;;;;;5074357;28;20017;-67
2023/08/03 14:28:54;;;;;;;14.45;2.30;;;;;;;;;;5090278;28;20027;-71
2023/08/03 14:31:20;;;;;;;11.95;3.20;;;;;;;;;;5090226;28;20082;-66
2023/08/03 14:33:45;;;;;;;6.88;2.53;;;;;;;;;;5074597;28;20017;-66
2023/08/03 14:36:10;;;;;;;5.70;2.17;;;;;;;;;;5073424;28;20373;-65
2023/08/03 14:38:36;;;;;;;6.50;2.50;;;;;;;;;;5073586;28;20078;-66
2023/08/03 14:41:01;;;;;;;5.93;2.22;;;;;;;;;;5073771;28;20427;-65